sensor_id;sensor_type;location;lat;lon;timestamp;temperature;humidity
65876;HTU21D;52657;51.128;5.938;2023-05-16T00:00:40;14.05;64.28
65876;HTU21D;52657;51.128;5.938;2023-05-16T00:03:08;14.04;63.56
65876;HTU21D;52657;51.128;5.938;2023-05-16T00:05:35;13.89;64.07
65876;HTU21D;52657;51.128;5.938;2023-05-16T00:08:02;13.88;64.31
65876;HTU21D;52657;51.128;5.938;2023-05-16T00:10:28;13.73;64.45
65876;HTU21D;52657;51.128;5.938;2023-05-16T00:12:55;13.65;64.96
65876;HTU21D;52657;51.128;5.938;2023-05-16T00:15:22;13.71;64.86
65876;HTU21D;52657;51.128;5.938;2023-05-16T00:17:49;13.76;64.92
65876;HTU21D;52657;51.128;5.938;2023-05-16T00:20:18;13.80;64.46
65876;HTU21D;52657;51.128;5.938;2023-05-16T00:22:47;13.84;63.97
65876;HTU21D;52657;51.128;5.938;2023-05-16T00:25:13;13.79;64.28
65876;HTU21D;52657;51.128;5.938;2023-05-16T00:27:39;13.83;64.39
65876;HTU21D;52657;51.128;5.938;2023-05-16T00:30:05;13.81;64.27
65876;HTU21D;52657;51.128;5.938;2023-05-16T00:32:31;13.79;63.92
65876;HTU21D;52657;51.128;5.938;2023-05-16T00:34:59;13.63;64.33
65876;HTU21D;52657;51.128;5.938;2023-05-16T00:37:25;13.54;64.63
65876;HTU21D;52657;51.128;5.938;2023-05-16T00:39:52;13.49;65.24
65876;HTU21D;52657;51.128;5.938;2023-05-16T00:42:19;13.55;65.19
65876;HTU21D;52657;51.128;5.938;2023-05-16T00:44:47;13.56;65.09
65876;HTU21D;52657;51.128;5.938;2023-05-16T00:47:14;13.58;64.98
65876;HTU21D;52657;51.128;5.938;2023-05-16T00:49:41;13.55;64.87
65876;HTU21D;52657;51.128;5.938;2023-05-16T00:52:12;13.56;64.52
65876;HTU21D;52657;51.128;5.938;2023-05-16T00:54:38;13.47;64.59
65876;HTU21D;52657;51.128;5.938;2023-05-16T00:57:08;13.45;64.50
65876;HTU21D;52657;51.128;5.938;2023-05-16T00:59:35;13.46;64.62
65876;HTU21D;52657;51.128;5.938;2023-05-16T01:02:01;13.44;64.59
65876;HTU21D;52657;51.128;5.938;2023-05-16T01:04:30;13.43;64.24
65876;HTU21D;52657;51.128;5.938;2023-05-16T01:07:00;13.39;64.92
65876;HTU21D;52657;51.128;5.938;2023-05-16T01:09:27;13.34;64.33
65876;HTU21D;52657;51.128;5.938;2023-05-16T01:15:21;13.27;64.57
65876;HTU21D;52657;51.128;5.938;2023-05-16T01:20:18;13.34;64.47
65876;HTU21D;52657;51.128;5.938;2023-05-16T01:22:47;13.34;64.43
65876;HTU21D;52657;51.128;5.938;2023-05-16T01:25:45;13.30;64.38
65876;HTU21D;52657;51.128;5.938;2023-05-16T01:28:16;13.30;64.23
65876;HTU21D;52657;51.128;5.938;2023-05-16T01:30:42;13.24;64.40
65876;HTU21D;52657;51.128;5.938;2023-05-16T01:33:09;13.25;64.12
65876;HTU21D;52657;51.128;5.938;2023-05-16T01:35:58;13.19;64.18
65876;HTU21D;52657;51.128;5.938;2023-05-16T01:38:30;13.18;64.11
65876;HTU21D;52657;51.128;5.938;2023-05-16T01:41:07;13.14;64.24
65876;HTU21D;52657;51.128;5.938;2023-05-16T01:43:42;13.17;64.11
65876;HTU21D;52657;51.128;5.938;2023-05-16T01:46:14;13.18;64.06
65876;HTU21D;52657;51.128;5.938;2023-05-16T01:48:52;13.14;63.69
65876;HTU21D;52657;51.128;5.938;2023-05-16T01:51:23;13.10;63.95
65876;HTU21D;52657;51.128;5.938;2023-05-16T01:53:51;13.10;63.77
65876;HTU21D;52657;51.128;5.938;2023-05-16T01:56:20;13.00;64.08
65876;HTU21D;52657;51.128;5.938;2023-05-16T01:58:49;13.01;64.01
65876;HTU21D;52657;51.128;5.938;2023-05-16T02:01:18;13.03;63.78
65876;HTU21D;52657;51.128;5.938;2023-05-16T02:03:44;13.06;63.42
65876;HTU21D;52657;51.128;5.938;2023-05-16T02:06:09;12.99;63.51
65876;HTU21D;52657;51.128;5.938;2023-05-16T02:08:35;12.97;63.74
65876;HTU21D;52657;51.128;5.938;2023-05-16T02:11:01;13.02;63.80
65876;HTU21D;52657;51.128;5.938;2023-05-16T02:13:26;12.97;63.73
65876;HTU21D;52657;51.128;5.938;2023-05-16T02:15:52;12.95;63.86
65876;HTU21D;52657;51.128;5.938;2023-05-16T02:18:17;12.99;63.81
65876;HTU21D;52657;51.128;5.938;2023-05-16T02:20:48;13.03;63.40
65876;HTU21D;52657;51.128;5.938;2023-05-16T02:23:14;13.00;63.39
65876;HTU21D;52657;51.128;5.938;2023-05-16T02:25:45;13.00;63.47
65876;HTU21D;52657;51.128;5.938;2023-05-16T02:28:11;13.01;63.41
65876;HTU21D;52657;51.128;5.938;2023-05-16T02:30:36;13.01;63.63
65876;HTU21D;52657;51.128;5.938;2023-05-16T02:33:02;12.97;63.41
65876;HTU21D;52657;51.128;5.938;2023-05-16T02:35:29;12.92;63.63
65876;HTU21D;52657;51.128;5.938;2023-05-16T02:37:58;12.82;63.78
65876;HTU21D;52657;51.128;5.938;2023-05-16T02:40:23;12.82;64.03
65876;HTU21D;52657;51.128;5.938;2023-05-16T02:42:49;12.79;63.89
65876;HTU21D;52657;51.128;5.938;2023-05-16T02:45:18;12.74;64.25
65876;HTU21D;52657;51.128;5.938;2023-05-16T02:47:43;12.77;64.32
65876;HTU21D;52657;51.128;5.938;2023-05-16T02:50:09;12.74;64.23
65876;HTU21D;52657;51.128;5.938;2023-05-16T02:52:35;12.62;64.45
65876;HTU21D;52657;51.128;5.938;2023-05-16T02:55:03;12.59;64.54
65876;HTU21D;52657;51.128;5.938;2023-05-16T02:57:32;12.53;64.72
65876;HTU21D;52657;51.128;5.938;2023-05-16T02:59:58;12.52;64.84
65876;HTU21D;52657;51.128;5.938;2023-05-16T03:02:26;12.55;64.82
65876;HTU21D;52657;51.128;5.938;2023-05-16T03:04:52;12.52;64.72
65876;HTU21D;52657;51.128;5.938;2023-05-16T03:07:17;12.52;64.84
65876;HTU21D;52657;51.128;5.938;2023-05-16T03:09:43;12.56;64.84
65876;HTU21D;52657;51.128;5.938;2023-05-16T03:12:08;12.58;64.88
65876;HTU21D;52657;51.128;5.938;2023-05-16T03:14:40;12.61;64.88
65876;HTU21D;52657;51.128;5.938;2023-05-16T03:17:05;12.59;64.71
65876;HTU21D;52657;51.128;5.938;2023-05-16T03:19:31;12.55;64.82
65876;HTU21D;52657;51.128;5.938;2023-05-16T03:21:56;12.52;65.07
65876;HTU21D;52657;51.128;5.938;2023-05-16T03:24:25;12.55;65.05
65876;HTU21D;52657;51.128;5.938;2023-05-16T03:26:50;12.52;65.19
65876;HTU21D;52657;51.128;5.938;2023-05-16T03:29:20;12.52;65.30
65876;HTU21D;52657;51.128;5.938;2023-05-16T03:31:45;12.50;65.24
65876;HTU21D;52657;51.128;5.938;2023-05-16T03:34:14;12.49;65.56
65876;HTU21D;52657;51.128;5.938;2023-05-16T03:36:40;12.46;65.67
65876;HTU21D;52657;51.128;5.938;2023-05-16T03:39:08;12.34;66.33
65876;HTU21D;52657;51.128;5.938;2023-05-16T03:41:34;12.25;66.71
65876;HTU21D;52657;51.128;5.938;2023-05-16T03:44:15;12.22;67.06
65876;HTU21D;52657;51.128;5.938;2023-05-16T03:46:43;12.21;67.00
65876;HTU21D;52657;51.128;5.938;2023-05-16T03:49:09;12.16;67.01
65876;HTU21D;52657;51.128;5.938;2023-05-16T03:51:34;12.12;67.20
65876;HTU21D;52657;51.128;5.938;2023-05-16T03:54:00;12.08;67.04
65876;HTU21D;52657;51.128;5.938;2023-05-16T03:56:26;12.06;67.07
65876;HTU21D;52657;51.128;5.938;2023-05-16T03:58:51;12.01;67.00
65876;HTU21D;52657;51.128;5.938;2023-05-16T04:01:21;12.00;67.22
65876;HTU21D;52657;51.128;5.938;2023-05-16T04:03:49;12.02;67.13
65876;HTU21D;52657;51.128;5.938;2023-05-16T04:06:18;12.04;66.91
65876;HTU21D;52657;51.128;5.938;2023-05-16T04:08:43;12.01;67.19
65876;HTU21D;52657;51.128;5.938;2023-05-16T04:11:11;12.07;67.04
65876;HTU21D;52657;51.128;5.938;2023-05-16T04:13:37;12.12;66.86
65876;HTU21D;52657;51.128;5.938;2023-05-16T04:16:06;12.14;66.67
65876;HTU21D;52657;51.128;5.938;2023-05-16T04:18:32;12.14;66.59
65876;HTU21D;52657;51.128;5.938;2023-05-16T04:20:58;12.16;66.56
65876;HTU21D;52657;51.128;5.938;2023-05-16T04:23:24;12.15;66.51
65876;HTU21D;52657;51.128;5.938;2023-05-16T04:25:51;12.15;66.37
65876;HTU21D;52657;51.128;5.938;2023-05-16T04:28:17;12.16;66.37
65876;HTU21D;52657;51.128;5.938;2023-05-16T04:30:45;12.18;66.14
65876;HTU21D;52657;51.128;5.938;2023-05-16T04:33:12;12.08;66.22
65876;HTU21D;52657;51.128;5.938;2023-05-16T04:35:37;12.10;66.23
65876;HTU21D;52657;51.128;5.938;2023-05-16T04:38:04;12.06;66.41
65876;HTU21D;52657;51.128;5.938;2023-05-16T04:40:29;12.11;66.54
65876;HTU21D;52657;51.128;5.938;2023-05-16T04:42:55;12.26;66.46
65876;HTU21D;52657;51.128;5.938;2023-05-16T04:45:21;12.33;66.07
65876;HTU21D;52657;51.128;5.938;2023-05-16T04:48:00;12.44;65.73
65876;HTU21D;52657;51.128;5.938;2023-05-16T04:50:26;12.50;65.65
65876;HTU21D;52657;51.128;5.938;2023-05-16T04:52:53;12.56;65.46
65876;HTU21D;52657;51.128;5.938;2023-05-16T04:55:19;12.58;65.13
65876;HTU21D;52657;51.128;5.938;2023-05-16T04:57:44;12.60;64.98
65876;HTU21D;52657;51.128;5.938;2023-05-16T05:00:11;12.62;64.87
65876;HTU21D;52657;51.128;5.938;2023-05-16T05:02:38;12.62;64.43
65876;HTU21D;52657;51.128;5.938;2023-05-16T05:05:05;12.52;64.97
65876;HTU21D;52657;51.128;5.938;2023-05-16T05:07:34;12.49;65.14
65876;HTU21D;52657;51.128;5.938;2023-05-16T05:10:00;12.52;65.16
65876;HTU21D;52657;51.128;5.938;2023-05-16T05:12:25;12.60;65.26
65876;HTU21D;52657;51.128;5.938;2023-05-16T05:14:52;12.61;64.89
65876;HTU21D;52657;51.128;5.938;2023-05-16T05:17:19;12.62;64.99
65876;HTU21D;52657;51.128;5.938;2023-05-16T05:19:46;12.66;64.85
65876;HTU21D;52657;51.128;5.938;2023-05-16T05:22:11;12.71;64.84
65876;HTU21D;52657;51.128;5.938;2023-05-16T05:24:37;12.75;64.88
65876;HTU21D;52657;51.128;5.938;2023-05-16T05:27:03;12.85;64.71
65876;HTU21D;52657;51.128;5.938;2023-05-16T05:29:29;12.85;64.18
65876;HTU21D;52657;51.128;5.938;2023-05-16T05:31:54;12.85;64.23
65876;HTU21D;52657;51.128;5.938;2023-05-16T05:34:20;12.88;64.23
65876;HTU21D;52657;51.128;5.938;2023-05-16T05:36:45;12.88;64.04
65876;HTU21D;52657;51.128;5.938;2023-05-16T05:39:11;12.92;64.21
65876;HTU21D;52657;51.128;5.938;2023-05-16T05:41:42;12.95;64.37
65876;HTU21D;52657;51.128;5.938;2023-05-16T05:44:07;13.06;64.42
65876;HTU21D;52657;51.128;5.938;2023-05-16T05:46:33;13.22;64.27
65876;HTU21D;52657;51.128;5.938;2023-05-16T05:49:00;13.29;63.34
65876;HTU21D;52657;51.128;5.938;2023-05-16T05:51:26;13.24;62.84
65876;HTU21D;52657;51.128;5.938;2023-05-16T05:53:53;13.25;63.43
65876;HTU21D;52657;51.128;5.938;2023-05-16T05:56:19;13.34;63.23
65876;HTU21D;52657;51.128;5.938;2023-05-16T05:58:45;13.41;62.70
65876;HTU21D;52657;51.128;5.938;2023-05-16T06:01:11;13.58;63.08
65876;HTU21D;52657;51.128;5.938;2023-05-16T06:03:37;13.98;61.25
65876;HTU21D;52657;51.128;5.938;2023-05-16T06:06:06;13.89;61.39
65876;HTU21D;52657;51.128;5.938;2023-05-16T06:08:31;13.95;61.28
65876;HTU21D;52657;51.128;5.938;2023-05-16T06:10:58;13.98;60.77
65876;HTU21D;52657;51.128;5.938;2023-05-16T06:13:24;14.37;61.78
65876;HTU21D;52657;51.128;5.938;2023-05-16T06:15:50;14.85;60.39
65876;HTU21D;52657;51.128;5.938;2023-05-16T06:18:19;15.58;57.60
65876;HTU21D;52657;51.128;5.938;2023-05-16T06:20:45;16.08;57.60
65876;HTU21D;52657;51.128;5.938;2023-05-16T06:23:17;17.01;55.29
65876;HTU21D;52657;51.128;5.938;2023-05-16T06:25:49;18.05;52.24
65876;HTU21D;52657;51.128;5.938;2023-05-16T06:28:15;18.68;48.65
65876;HTU21D;52657;51.128;5.938;2023-05-16T06:30:43;19.07;48.12
65876;HTU21D;52657;51.128;5.938;2023-05-16T06:33:09;19.66;46.63
65876;HTU21D;52657;51.128;5.938;2023-05-16T06:35:35;19.58;44.77
65876;HTU21D;52657;51.128;5.938;2023-05-16T06:38:00;19.21;43.82
65876;HTU21D;52657;51.128;5.938;2023-05-16T06:40:33;18.70;45.02
65876;HTU21D;52657;51.128;5.938;2023-05-16T06:43:02;18.30;47.26
65876;HTU21D;52657;51.128;5.938;2023-05-16T06:45:28;18.76;46.33
65876;HTU21D;52657;51.128;5.938;2023-05-16T06:47:54;19.22;45.40
65876;HTU21D;52657;51.128;5.938;2023-05-16T06:50:22;19.69;43.05
65876;HTU21D;52657;51.128;5.938;2023-05-16T06:52:48;19.71;42.28
65876;HTU21D;52657;51.128;5.938;2023-05-16T06:55:16;19.96;42.56
65876;HTU21D;52657;51.128;5.938;2023-05-16T06:57:42;20.26;42.06
65876;HTU21D;52657;51.128;5.938;2023-05-16T07:00:08;20.33;41.78
65876;HTU21D;52657;51.128;5.938;2023-05-16T07:02:34;20.85;41.94
65876;HTU21D;52657;51.128;5.938;2023-05-16T07:04:59;21.23;39.90
65876;HTU21D;52657;51.128;5.938;2023-05-16T07:07:25;21.40;39.64
65876;HTU21D;52657;51.128;5.938;2023-05-16T07:09:54;21.53;38.66
65876;HTU21D;52657;51.128;5.938;2023-05-16T07:12:21;21.49;39.17
65876;HTU21D;52657;51.128;5.938;2023-05-16T07:14:47;21.64;38.04
65876;HTU21D;52657;51.128;5.938;2023-05-16T07:17:13;21.14;38.07
65876;HTU21D;52657;51.128;5.938;2023-05-16T07:19:38;20.68;38.70
65876;HTU21D;52657;51.128;5.938;2023-05-16T07:22:04;20.64;39.91
65876;HTU21D;52657;51.128;5.938;2023-05-16T07:24:32;20.96;40.23
65876;HTU21D;52657;51.128;5.938;2023-05-16T07:26:58;21.42;39.85
65876;HTU21D;52657;51.128;5.938;2023-05-16T07:29:27;21.89;38.95
65876;HTU21D;52657;51.128;5.938;2023-05-16T07:31:54;22.47;38.91
65876;HTU21D;52657;51.128;5.938;2023-05-16T07:34:20;22.83;36.72
65876;HTU21D;52657;51.128;5.938;2023-05-16T07:36:46;22.72;35.73
65876;HTU21D;52657;51.128;5.938;2023-05-16T07:39:11;22.51;37.08
65876;HTU21D;52657;51.128;5.938;2023-05-16T07:41:37;22.39;34.23
65876;HTU21D;52657;51.128;5.938;2023-05-16T07:44:03;21.74;32.35
65876;HTU21D;52657;51.128;5.938;2023-05-16T07:46:28;20.93;34.90
65876;HTU21D;52657;51.128;5.938;2023-05-16T07:48:54;20.27;36.85
65876;HTU21D;52657;51.128;5.938;2023-05-16T07:51:20;19.81;36.82
65876;HTU21D;52657;51.128;5.938;2023-05-16T07:53:46;19.55;38.83
65876;HTU21D;52657;51.128;5.938;2023-05-16T07:56:12;19.58;38.07
65876;HTU21D;52657;51.128;5.938;2023-05-16T07:58:38;19.56;38.73
65876;HTU21D;52657;51.128;5.938;2023-05-16T08:01:09;19.89;38.61
65876;HTU21D;52657;51.128;5.938;2023-05-16T08:03:34;20.30;38.85
65876;HTU21D;52657;51.128;5.938;2023-05-16T08:06:01;20.51;37.30
65876;HTU21D;52657;51.128;5.938;2023-05-16T08:08:26;20.16;36.18
65876;HTU21D;52657;51.128;5.938;2023-05-16T08:10:52;19.61;37.31
65876;HTU21D;52657;51.128;5.938;2023-05-16T08:13:18;19.31;38.71
65876;HTU21D;52657;51.128;5.938;2023-05-16T08:15:43;19.05;38.85
65876;HTU21D;52657;51.128;5.938;2023-05-16T08:18:13;18.82;39.00
65876;HTU21D;52657;51.128;5.938;2023-05-16T08:20:39;18.53;39.85
65876;HTU21D;52657;51.128;5.938;2023-05-16T08:23:07;18.59;42.42
65876;HTU21D;52657;51.128;5.938;2023-05-16T08:25:32;19.06;41.29
65876;HTU21D;52657;51.128;5.938;2023-05-16T08:27:59;19.33;39.82
65876;HTU21D;52657;51.128;5.938;2023-05-16T08:30:27;19.50;38.68
65876;HTU21D;52657;51.128;5.938;2023-05-16T08:32:52;19.43;38.71
65876;HTU21D;52657;51.128;5.938;2023-05-16T08:35:19;19.65;37.98
65876;HTU21D;52657;51.128;5.938;2023-05-16T08:37:45;19.97;38.24
65876;HTU21D;52657;51.128;5.938;2023-05-16T08:40:11;20.30;35.69
65876;HTU21D;52657;51.128;5.938;2023-05-16T08:42:38;20.12;37.25
65876;HTU21D;52657;51.128;5.938;2023-05-16T08:45:06;20.15;36.59
65876;HTU21D;52657;51.128;5.938;2023-05-16T08:47:32;19.91;36.30
65876;HTU21D;52657;51.128;5.938;2023-05-16T08:50:08;19.50;36.42
65876;HTU21D;52657;51.128;5.938;2023-05-16T08:52:42;18.95;37.24
65876;HTU21D;52657;51.128;5.938;2023-05-16T08:55:08;18.79;38.21
65876;HTU21D;52657;51.128;5.938;2023-05-16T08:57:34;18.92;38.67
65876;HTU21D;52657;51.128;5.938;2023-05-16T09:00:03;19.09;38.31
65876;HTU21D;52657;51.128;5.938;2023-05-16T09:02:41;19.27;38.27
65876;HTU21D;52657;51.128;5.938;2023-05-16T09:05:08;19.29;38.66
65876;HTU21D;52657;51.128;5.938;2023-05-16T09:07:35;19.27;37.89
65876;HTU21D;52657;51.128;5.938;2023-05-16T09:10:01;19.03;36.83
65876;HTU21D;52657;51.128;5.938;2023-05-16T09:12:39;18.77;36.64
65876;HTU21D;52657;51.128;5.938;2023-05-16T09:15:08;18.57;37.36
65876;HTU21D;52657;51.128;5.938;2023-05-16T09:17:36;18.44;37.56
65876;HTU21D;52657;51.128;5.938;2023-05-16T09:20:12;18.38;37.77
65876;HTU21D;52657;51.128;5.938;2023-05-16T09:22:39;18.36;38.06
65876;HTU21D;52657;51.128;5.938;2023-05-16T09:25:16;18.27;38.13
65876;HTU21D;52657;51.128;5.938;2023-05-16T09:27:42;18.33;39.13
65876;HTU21D;52657;51.128;5.938;2023-05-16T09:30:08;18.57;38.82
65876;HTU21D;52657;51.128;5.938;2023-05-16T09:32:34;18.68;38.42
65876;HTU21D;52657;51.128;5.938;2023-05-16T09:34:59;18.64;38.08
65876;HTU21D;52657;51.128;5.938;2023-05-16T09:37:25;18.68;39.20
65876;HTU21D;52657;51.128;5.938;2023-05-16T09:39:52;18.67;39.25
65876;HTU21D;52657;51.128;5.938;2023-05-16T09:42:22;18.57;39.21
65876;HTU21D;52657;51.128;5.938;2023-05-16T09:44:49;18.63;39.14
65876;HTU21D;52657;51.128;5.938;2023-05-16T09:47:16;18.41;38.89
65876;HTU21D;52657;51.128;5.938;2023-05-16T09:49:44;18.37;38.98
65876;HTU21D;52657;51.128;5.938;2023-05-16T09:52:12;18.40;39.42
65876;HTU21D;52657;51.128;5.938;2023-05-16T09:54:38;18.58;38.86
65876;HTU21D;52657;51.128;5.938;2023-05-16T09:57:04;18.71;38.48
65876;HTU21D;52657;51.128;5.938;2023-05-16T09:59:37;18.80;38.41
65876;HTU21D;52657;51.128;5.938;2023-05-16T10:02:05;18.86;37.73
65876;HTU21D;52657;51.128;5.938;2023-05-16T10:04:33;18.97;36.82
65876;HTU21D;52657;51.128;5.938;2023-05-16T10:07:04;18.96;37.44
65876;HTU21D;52657;51.128;5.938;2023-05-16T10:09:31;19.05;37.92
65876;HTU21D;52657;51.128;5.938;2023-05-16T10:12:00;19.03;37.62
65876;HTU21D;52657;51.128;5.938;2023-05-16T10:14:38;19.03;36.95
65876;HTU21D;52657;51.128;5.938;2023-05-16T10:17:12;19.00;37.36
65876;HTU21D;52657;51.128;5.938;2023-05-16T10:19:41;19.03;37.05
65876;HTU21D;52657;51.128;5.938;2023-05-16T10:22:10;18.74;37.56
65876;HTU21D;52657;51.128;5.938;2023-05-16T10:24:51;18.53;36.69
65876;HTU21D;52657;51.128;5.938;2023-05-16T10:27:19;18.54;37.33
65876;HTU21D;52657;51.128;5.938;2023-05-16T10:29:45;18.78;37.04
65876;HTU21D;52657;51.128;5.938;2023-05-16T10:32:15;18.95;37.50
65876;HTU21D;52657;51.128;5.938;2023-05-16T10:34:41;19.06;36.18
65876;HTU21D;52657;51.128;5.938;2023-05-16T10:37:10;19.01;36.20
65876;HTU21D;52657;51.128;5.938;2023-05-16T10:39:38;18.87;36.94
65876;HTU21D;52657;51.128;5.938;2023-05-16T10:42:07;18.76;36.46
65876;HTU21D;52657;51.128;5.938;2023-05-16T10:44:33;18.72;37.26
65876;HTU21D;52657;51.128;5.938;2023-05-16T10:46:59;18.94;37.59
65876;HTU21D;52657;51.128;5.938;2023-05-16T10:49:29;19.28;37.90
65876;HTU21D;52657;51.128;5.938;2023-05-16T10:54:34;19.73;37.02
65876;HTU21D;52657;51.128;5.938;2023-05-16T10:59:54;19.76;36.61
65876;HTU21D;52657;51.128;5.938;2023-05-16T11:02:31;19.91;36.70
65876;HTU21D;52657;51.128;5.938;2023-05-16T11:04:59;19.98;34.83
65876;HTU21D;52657;51.128;5.938;2023-05-16T11:07:31;19.91;35.15
65876;HTU21D;52657;51.128;5.938;2023-05-16T11:10:14;19.79;36.37
65876;HTU21D;52657;51.128;5.938;2023-05-16T11:12:50;19.74;35.99
65876;HTU21D;52657;51.128;5.938;2023-05-16T11:15:22;19.68;35.40
65876;HTU21D;52657;51.128;5.938;2023-05-16T11:17:46;19.40;35.58
65876;HTU21D;52657;51.128;5.938;2023-05-16T11:20:28;18.95;36.90
65876;HTU21D;52657;51.128;5.938;2023-05-16T11:23:17;18.71;38.61
65876;HTU21D;52657;51.128;5.938;2023-05-16T11:26:03;18.55;39.17
65876;HTU21D;52657;51.128;5.938;2023-05-16T11:28:44;18.50;40.56
65876;HTU21D;52657;51.128;5.938;2023-05-16T11:31:22;18.40;40.13
65876;HTU21D;52657;51.128;5.938;2023-05-16T11:34:07;18.28;40.59
65876;HTU21D;52657;51.128;5.938;2023-05-16T11:36:55;18.44;40.82
65876;HTU21D;52657;51.128;5.938;2023-05-16T11:39:45;18.73;40.46
65876;HTU21D;52657;51.128;5.938;2023-05-16T11:42:11;18.74;40.94
65876;HTU21D;52657;51.128;5.938;2023-05-16T11:45:05;19.01;39.02
65876;HTU21D;52657;51.128;5.938;2023-05-16T11:47:31;19.00;39.36
65876;HTU21D;52657;51.128;5.938;2023-05-16T11:50:16;19.03;39.09
65876;HTU21D;52657;51.128;5.938;2023-05-16T11:52:53;19.15;38.26
65876;HTU21D;52657;51.128;5.938;2023-05-16T11:55:26;19.33;37.09
65876;HTU21D;52657;51.128;5.938;2023-05-16T11:57:57;19.38;36.44
65876;HTU21D;52657;51.128;5.938;2023-05-16T12:00:25;19.27;36.88
65876;HTU21D;52657;51.128;5.938;2023-05-16T12:02:52;19.26;34.73
65876;HTU21D;52657;51.128;5.938;2023-05-16T12:05:19;19.12;34.78
65876;HTU21D;52657;51.128;5.938;2023-05-16T12:07:53;19.14;36.11
65876;HTU21D;52657;51.128;5.938;2023-05-16T12:10:22;19.15;36.18
65876;HTU21D;52657;51.128;5.938;2023-05-16T12:12:58;19.20;35.11
65876;HTU21D;52657;51.128;5.938;2023-05-16T12:15:24;19.17;35.25
65876;HTU21D;52657;51.128;5.938;2023-05-16T12:17:50;19.09;35.47
65876;HTU21D;52657;51.128;5.938;2023-05-16T12:20:19;19.23;36.02
65876;HTU21D;52657;51.128;5.938;2023-05-16T12:22:47;19.48;34.78
65876;HTU21D;52657;51.128;5.938;2023-05-16T12:25:29;19.52;33.76
65876;HTU21D;52657;51.128;5.938;2023-05-16T12:28:05;19.56;34.26
65876;HTU21D;52657;51.128;5.938;2023-05-16T12:30:32;19.71;33.13
65876;HTU21D;52657;51.128;5.938;2023-05-16T12:33:06;19.72;32.27
65876;HTU21D;52657;51.128;5.938;2023-05-16T12:35:34;19.51;32.40
65876;HTU21D;52657;51.128;5.938;2023-05-16T12:38:06;19.36;33.07
65876;HTU21D;52657;51.128;5.938;2023-05-16T12:40:39;19.24;33.47
65876;HTU21D;52657;51.128;5.938;2023-05-16T12:43:18;19.06;34.12
65876;HTU21D;52657;51.128;5.938;2023-05-16T12:45:57;18.91;34.47
65876;HTU21D;52657;51.128;5.938;2023-05-16T12:48:31;18.72;35.16
65876;HTU21D;52657;51.128;5.938;2023-05-16T12:51:27;18.68;35.28
65876;HTU21D;52657;51.128;5.938;2023-05-16T12:54:07;18.74;36.29
65876;HTU21D;52657;51.128;5.938;2023-05-16T12:56:38;18.98;36.12
65876;HTU21D;52657;51.128;5.938;2023-05-16T12:59:04;19.26;35.73
65876;HTU21D;52657;51.128;5.938;2023-05-16T13:01:30;19.42;35.11
65876;HTU21D;52657;51.128;5.938;2023-05-16T13:03:55;19.56;35.12
65876;HTU21D;52657;51.128;5.938;2023-05-16T13:06:25;19.77;35.23
65876;HTU21D;52657;51.128;5.938;2023-05-16T13:08:51;19.85;33.57
65876;HTU21D;52657;51.128;5.938;2023-05-16T13:11:16;19.70;34.13
65876;HTU21D;52657;51.128;5.938;2023-05-16T13:13:43;19.77;34.45
65876;HTU21D;52657;51.128;5.938;2023-05-16T13:16:09;20.02;34.40
65876;HTU21D;52657;51.128;5.938;2023-05-16T13:18:35;20.19;33.55
65876;HTU21D;52657;51.128;5.938;2023-05-16T13:21:06;20.09;32.98
65876;HTU21D;52657;51.128;5.938;2023-05-16T13:23:31;20.10;33.21
65876;HTU21D;52657;51.128;5.938;2023-05-16T13:25:59;19.97;32.91
65876;HTU21D;52657;51.128;5.938;2023-05-16T13:28:42;19.83;32.24
65876;HTU21D;52657;51.128;5.938;2023-05-16T13:31:13;19.55;32.89
65876;HTU21D;52657;51.128;5.938;2023-05-16T13:33:48;19.47;33.67
65876;HTU21D;52657;51.128;5.938;2023-05-16T13:36:15;19.51;34.07
65876;HTU21D;52657;51.128;5.938;2023-05-16T13:38:40;19.58;34.72
65876;HTU21D;52657;51.128;5.938;2023-05-16T13:41:09;19.67;34.92
65876;HTU21D;52657;51.128;5.938;2023-05-16T13:43:34;19.75;34.91
65876;HTU21D;52657;51.128;5.938;2023-05-16T13:46:00;19.80;34.88
65876;HTU21D;52657;51.128;5.938;2023-05-16T13:48:26;19.87;35.41
65876;HTU21D;52657;51.128;5.938;2023-05-16T13:51:11;19.90;35.30
65876;HTU21D;52657;51.128;5.938;2023-05-16T13:53:37;19.89;35.54
65876;HTU21D;52657;51.128;5.938;2023-05-16T13:56:32;19.94;35.43
65876;HTU21D;52657;51.128;5.938;2023-05-16T13:58:58;19.97;35.92
65876;HTU21D;52657;51.128;5.938;2023-05-16T14:01:36;19.94;35.76
65876;HTU21D;52657;51.128;5.938;2023-05-16T14:04:16;19.87;35.58
65876;HTU21D;52657;51.128;5.938;2023-05-16T14:06:42;19.79;35.73
65876;HTU21D;52657;51.128;5.938;2023-05-16T14:09:07;19.73;35.89
65876;HTU21D;52657;51.128;5.938;2023-05-16T14:11:34;19.73;35.53
65876;HTU21D;52657;51.128;5.938;2023-05-16T14:13:59;19.74;35.79
65876;HTU21D;52657;51.128;5.938;2023-05-16T14:16:25;19.73;36.03
65876;HTU21D;52657;51.128;5.938;2023-05-16T14:18:51;19.90;35.89
65876;HTU21D;52657;51.128;5.938;2023-05-16T14:21:17;19.98;36.02
65876;HTU21D;52657;51.128;5.938;2023-05-16T14:23:43;20.17;36.02
65876;HTU21D;52657;51.128;5.938;2023-05-16T14:26:08;20.07;35.87
65876;HTU21D;52657;51.128;5.938;2023-05-16T14:28:56;20.02;35.68
65876;HTU21D;52657;51.128;5.938;2023-05-16T14:31:25;19.87;36.10
65876;HTU21D;52657;51.128;5.938;2023-05-16T14:33:51;19.81;35.97
65876;HTU21D;52657;51.128;5.938;2023-05-16T14:36:16;19.76;36.03
65876;HTU21D;52657;51.128;5.938;2023-05-16T14:38:42;19.74;35.72
65876;HTU21D;52657;51.128;5.938;2023-05-16T14:41:08;19.70;35.88
65876;HTU21D;52657;51.128;5.938;2023-05-16T14:43:36;19.71;35.50
65876;HTU21D;52657;51.128;5.938;2023-05-16T14:46:09;19.75;35.73
65876;HTU21D;52657;51.128;5.938;2023-05-16T14:48:35;19.75;36.00
65876;HTU21D;52657;51.128;5.938;2023-05-16T14:51:03;19.81;36.08
65876;HTU21D;52657;51.128;5.938;2023-05-16T14:53:35;19.83;36.24
65876;HTU21D;52657;51.128;5.938;2023-05-16T14:56:04;19.89;36.27
65876;HTU21D;52657;51.128;5.938;2023-05-16T14:58:48;19.94;36.28
65876;HTU21D;52657;51.128;5.938;2023-05-16T15:01:16;19.95;36.18
65876;HTU21D;52657;51.128;5.938;2023-05-16T15:03:41;19.97;36.41
65876;HTU21D;52657;51.128;5.938;2023-05-16T15:06:10;20.00;36.34
65876;HTU21D;52657;51.128;5.938;2023-05-16T15:08:36;19.76;36.89
65876;HTU21D;52657;51.128;5.938;2023-05-16T15:11:04;19.71;37.39
65876;HTU21D;52657;51.128;5.938;2023-05-16T15:13:30;19.69;36.86
65876;HTU21D;52657;51.128;5.938;2023-05-16T15:15:58;19.68;37.08
65876;HTU21D;52657;51.128;5.938;2023-05-16T15:18:24;19.66;37.78
65876;HTU21D;52657;51.128;5.938;2023-05-16T15:20:50;19.73;37.82
65876;HTU21D;52657;51.128;5.938;2023-05-16T15:23:17;19.79;37.60
65876;HTU21D;52657;51.128;5.938;2023-05-16T15:25:45;19.80;37.34
65876;HTU21D;52657;51.128;5.938;2023-05-16T15:28:11;19.81;36.76
65876;HTU21D;52657;51.128;5.938;2023-05-16T15:30:37;19.73;36.82
65876;HTU21D;52657;51.128;5.938;2023-05-16T15:33:03;19.72;36.66
65876;HTU21D;52657;51.128;5.938;2023-05-16T15:35:28;19.68;36.61